Terminal Aerodrome Forecast
Issued by NWS

Home | Current Version | Previous Version | Text Only | Print | Product List | Glossary On
Versions: 1 2 3 4 5 6 7 8 9 10 11 12 13 14 15 16
000
FTUS44 KBMX 282300 RRA
TAFMGM
TAF
KMGM 282342Z 2900/2924 33006KT P6SM VCSH SCT007 OVC015
     FM290200 34007KT 5SM -SHRA BR OVC006
     FM290600 34005KT 4SM -RA BR OVC004
     FM291400 33004KT 4SM BR OVC004
     FM291700 34005KT P6SM OVC007=

USA.gov is the U.S. government's official web portal to all federal, state and local government web resources and services.